Time;durP1;ratioP1;P1;durP2;ratioP2;P2;SDS_P1;SDS_P2;PMS_P1;PMS_P2;Temp;Humidity;BMP_temperature;BMP_pressure;BME280_temperature;BME280_humidity;BME280_pressure;Samples;Min_cycle;Max_cycle;Signal;HPM_P1;HPM_P2
2023/05/24 00:01:58;;;;;;;4.88;4.47;;;;;;;7.52;78.67;101499.59;6111768;23;20027;-71
2023/05/24 00:04:29;;;;;;;4.00;3.80;;;;;;;7.95;78.71;101585.50;6094202;23;20035;-70
2023/05/24 00:06:55;;;;;;;4.25;3.95;;;;;;;7.92;79.54;101587.38;6111239;23;20048;-70
2023/05/24 00:09:22;;;;;;;14.50;4.50;;;;;;;7.79;79.45;101581.59;6116531;23;20033;-70
2023/05/24 00:11:48;;;;;;;5.68;4.43;;;;;;;7.76;80.01;101592.16;6108354;23;20039;-71
2023/05/24 00:14:15;;;;;;;7.68;4.15;;;;;;;7.70;79.93;101602.75;6093880;23;20016;-71
2023/05/24 00:16:41;;;;;;;9.45;4.53;;;;;;;7.64;80.74;101613.34;6114041;23;20594;-71
2023/05/24 00:19:09;;;;;;;6.18;5.15;;;;;;;7.54;81.13;101612.75;6114094;23;20028;-71
2023/05/24 00:21:37;;;;;;;8.07;4.00;;;;;;;7.52;82.91;101614.53;6087389;23;20180;-71
2023/05/24 00:24:06;;;;;;;4.85;4.32;;;;;;;7.17;82.26;101569.22;6101852;23;20079;-71
2023/05/24 00:26:33;;;;;;;13.32;4.35;;;;;;;7.43;82.41;101612.97;6108581;23;20017;-71
2023/05/24 00:28:59;;;;;;;5.00;4.50;;;;;;;7.47;82.99;101619.00;6093767;23;20033;-72
2023/05/24 00:31:26;;;;;;;4.90;4.47;;;;;;;7.43;82.93;101620.81;6113724;23;20021;-70
2023/05/24 00:33:52;;;;;;;9.77;4.75;;;;;;;7.33;82.76;101611.50;6088461;23;20021;-70
2023/05/24 00:36:19;;;;;;;12.57;4.35;;;;;;;7.28;83.77;101611.59;6091644;23;20029;-71
2023/05/24 00:38:45;;;;;;;4.18;3.97;;;;;;;7.28;83.57;101611.59;6118604;23;20041;-70
2023/05/24 00:41:12;;;;;;;4.63;4.28;;;;;;;7.23;83.91;101610.00;6087668;23;20538;-70
2023/05/24 00:43:38;;;;;;;4.20;4.00;;;;;;;7.14;84.55;101600.63;6117073;23;20112;-72
2023/05/24 00:46:15;;;;;;;4.22;4.03;;;;;;;7.14;85.14;101611.09;6112201;23;20029;-71
2023/05/24 00:48:41;;;;;;;5.50;4.65;;;;;;;7.07;84.88;101610.34;6107714;23;20424;-71
2023/05/24 00:51:09;;;;;;;4.13;3.92;;;;;;;7.01;85.57;101614.84;6090677;23;20047;-71
2023/05/24 00:53:36;;;;;;;4.50;4.13;;;;;;;6.99;86.12;101636.59;6118451;23;20033;-70
2023/05/24 00:56:03;;;;;;;4.60;4.30;;;;;;;6.57;86.72;101560.16;6113563;23;20021;-70
2023/05/24 00:58:31;;;;;;;9.50;4.32;;;;;;;6.97;87.04;101627.97;6112024;23;20576;-71
2023/05/24 01:00:59;;;;;;;5.90;4.93;;;;;;;6.77;86.75;101604.06;6092054;23;20042;-71
2023/05/24 01:03:29;;;;;;;5.70;5.00;;;;;;;6.74;87.49;101598.94;6113543;23;20030;-71
2023/05/24 01:06:03;;;;;;;3.78;3.60;;;;;;;6.90;87.65;101630.75;6119346;23;20025;-71
2023/05/24 01:08:38;;;;;;;4.00;3.80;;;;;;;6.83;88.89;101630.00;6119479;23;20629;-71
2023/05/24 01:11:31;;;;;;;12.88;4.63;;;;;;;6.13;88.51;101534.16;6104695;23;20484;-71
2023/05/24 01:14:02;;;;;;;4.30;4.10;;;;;;;6.68;89.79;101636.44;6091326;23;20046;-70
2023/05/24 01:16:40;;;;;;;4.68;4.13;;;;;;;6.37;90.78;101597.97;6093039;23;20522;-71
2023/05/24 01:19:34;;;;;;;10.40;4.20;;;;;;;6.50;92.52;101636.81;6091555;23;20025;-71
2023/05/24 01:22:15;;;;;;;4.53;4.30;;;;;;;6.26;93.07;101631.19;6115110;23;20618;-71
2023/05/24 01:24:54;;;;;;;4.68;4.38;;;;;;;6.31;93.15;101639.75;6114525;23;20031;-71
2023/05/24 01:27:22;;;;;;;21.77;5.72;;;;;;;5.78;94.87;101569.50;6119921;23;20046;-71
2023/05/24 01:29:52;;;;;;;18.02;3.97;;;;;;;5.82;95.24;101585.09;6068593;23;20095;-71
2023/05/24 01:32:19;;;;;;;4.00;3.80;;;;;;;5.75;96.03;101587.81;6111742;23;20508;-72
2023/05/24 01:34:45;;;;;;;26.92;4.80;;;;;;;5.98;96.84;101634.31;6093234;23;20025;-71
2023/05/24 01:37:12;;;;;;;9.40;4.43;;;;;;;6.00;98.37;101636.88;6090279;23;20022;-70
2023/05/24 01:39:39;;;;;;;4.70;3.90;;;;;;;5.55;98.47;101585.53;6120361;23;20630;-71
2023/05/24 01:42:24;;;;;;;4.53;4.30;;;;;;;5.94;100.00;101650.84;6119203;23;20065;-70
2023/05/24 01:45:13;;;;;;;4.15;3.92;;;;;;;5.88;100.00;101652.72;6118221;23;20084;-69
2023/05/24 01:48:00;;;;;;;4.00;3.80;;;;;;;5.57;100.00;101608.94;6091420;23;20024;-70
2023/05/24 01:50:31;;;;;;;6.38;4.97;;;;;;;5.34;100.00;101571.13;6118480;23;20021;-71
2023/05/24 01:53:03;;;;;;;4.53;4.05;;;;;;;5.83;100.00;101660.56;6089427;23;20097;-71
2023/05/24 01:55:32;;;;;;;4.40;4.10;;;;;;;5.46;100.00;101596.09;6116122;23;20103;-70
2023/05/24 01:58:02;;;;;;;4.53;4.32;;;;;;;5.18;100.00;101560.09;6087876;23;20044;-71
2023/05/24 02:00:30;;;;;;;4.78;4.30;;;;;;;5.15;100.00;101564.50;6116052;23;20063;-70
2023/05/24 02:02:57;;;;;;;5.60;4.07;;;;;;;5.31;100.00;101584.22;6081770;23;20022;-70
2023/05/24 02:05:23;;;;;;;3.92;3.72;;;;;;;5.11;100.00;101561.09;6117772;23;20072;-70
2023/05/24 02:07:50;;;;;;;6.68;4.28;;;;;;;5.62;100.00;101640.97;6088627;23;20693;-69
2023/05/24 02:10:16;;;;;;;4.38;4.18;;;;;;;5.14;100.00;101568.84;6093873;23;20032;-70
2023/05/24 02:12:43;;;;;;;7.05;4.20;;;;;;;4.47;100.00;101482.31;6111056;23;20549;-70
2023/05/24 02:15:10;;;;;;;4.75;4.35;;;;;;;4.98;100.00;101524.00;6118032;23;20033;-71
2023/05/24 02:17:36;;;;;;;4.22;4.03;;;;;;;5.69;100.00;101636.50;6111653;23;20594;-71
2023/05/24 02:20:03;;;;;;;4.40;4.15;;;;;;;5.48;100.00;101603.91;6092181;23;20398;-71
2023/05/24 02:22:29;;;;;;;4.30;4.10;;;;;;;5.71;100.00;101634.75;6126990;23;20040;-72
2023/05/24 02:24:56;;;;;;;4.90;4.50;;;;;;;5.40;100.00;101588.41;6106919;23;20034;-71
2023/05/24 02:27:22;;;;;;;4.55;4.25;;;;;;;5.70;100.00;101623.47;6118262;23;20096;-71
2023/05/24 02:29:49;;;;;;;4.57;4.35;;;;;;;5.65;100.00;101611.41;6100377;23;20026;-71
2023/05/24 02:32:15;;;;;;;10.85;4.72;;;;;;;5.66;100.00;101610.53;6112815;23;20017;-72
2023/05/24 02:34:42;;;;;;;4.18;3.97;;;;;;;5.39;100.00;101568.44;6098771;23;20025;-72
2023/05/24 02:37:13;;;;;;;4.35;4.05;;;;;;;5.74;100.00;101632.09;6085047;23;20459;-70
2023/05/24 02:39:40;;;;;;;5.57;4.65;;;;;;;5.67;100.00;101639.13;6116386;23;20051;-70
2023/05/24 02:42:07;;;;;;;4.40;4.20;;;;;;;5.68;100.00;101640.03;6120577;23;20174;-71
2023/05/24 02:44:34;;;;;;;3.80;3.53;;;;;;;5.23;100.00;101567.81;6112555;23;20420;-72
2023/05/24 02:47:01;;;;;;;3.78;3.58;;;;;;;5.32;100.00;101595.47;6118840;23;20029;-72
2023/05/24 02:49:27;;;;;;;19.25;4.07;;;;;;;5.58;100.00;101637.56;6113960;23;20036;-72
2023/05/24 02:51:54;;;;;;;4.47;4.07;;;;;;;5.53;100.00;101644.59;6120115;23;20436;-71
2023/05/24 02:54:20;;;;;;;14.32;5.30;;;;;;;5.14;100.00;101584.47;6116137;23;20021;-71
2023/05/24 02:56:47;;;;;;;7.82;4.80;;;;;;;5.20;100.00;101597.38;6095747;23;20081;-72
2023/05/24 02:59:13;;;;;;;4.00;3.80;;;;;;;5.45;100.00;101646.44;6113167;23;20034;-72
2023/05/24 03:01:40;;;;;;;8.30;4.85;;;;;;;4.94;100.00;101563.94;6112896;23;20475;-71
2023/05/24 03:04:06;;;;;;;9.50;4.35;;;;;;;5.04;100.00;101588.09;6111793;23;20116;-72
2023/05/24 03:06:33;;;;;;;5.35;4.70;;;;;;;5.06;100.00;101595.88;6119486;23;20041;-71
2023/05/24 03:08:59;;;;;;;5.80;5.45;;;;;;;5.15;100.00;101609.59;6087178;23;20655;-70
2023/05/24 03:11:26;;;;;;;4.20;3.65;;;;;;;5.39;100.00;101646.53;6115765;23;20601;-70
2023/05/24 03:13:52;;;;;;;19.02;4.30;;;;;;;5.47;100.00;101649.91;6088578;23;20303;-70
2023/05/24 03:16:19;;;;;;;5.25;4.68;;;;;;;5.51;100.00;101659.38;6119262;23;20029;-70
2023/05/24 03:18:49;;;;;;;3.50;3.40;;;;;;;4.86;100.00;101557.16;6117698;23;20017;-70
2023/05/24 03:21:16;;;;;;;5.00;4.60;;;;;;;5.44;100.00;101662.97;6102983;23;20006;-71
2023/05/24 03:23:43;;;;;;;4.38;3.95;;;;;;;4.83;100.00;101572.78;6111760;23;20033;-71
2023/05/24 03:26:09;;;;;;;6.65;4.82;;;;;;;5.38;100.00;101663.06;6094531;23;20026;-71
2023/05/24 03:28:36;;;;;;;10.80;4.22;;;;;;;5.28;100.00;101651.06;6108663;23;20086;-71
2023/05/24 03:31:02;;;;;;;5.22;4.60;;;;;;;5.36;100.00;101663.06;6114532;23;20043;-70
2023/05/24 03:33:30;;;;;;;9.07;4.63;;;;;;;5.36;100.00;101655.25;6085998;23;20037;-70
2023/05/24 03:35:57;;;;;;;4.47;4.28;;;;;;;4.95;100.00;101603.81;6115029;23;20029;-76
2023/05/24 03:38:23;;;;;;;5.75;4.05;;;;;;;4.97;100.00;101589.03;6118235;23;20033;-75
2023/05/24 03:40:50;;;;;;;4.50;3.88;;;;;;;5.48;100.00;101677.63;6113550;23;20029;-74
2023/05/24 03:43:17;;;;;;;4.70;4.40;;;;;;;5.49;100.00;101675.91;6084853;23;20119;-74
2023/05/24 03:45:43;;;;;;;4.40;3.53;;;;;;;5.05;100.00;101610.63;6115087;23;20036;-74
2023/05/24 03:48:10;;;;;;;3.92;3.63;;;;;;;4.95;100.00;101590.81;6086530;23;20042;-74
2023/05/24 03:50:36;;;;;;;3.70;3.53;;;;;;;5.06;100.00;101606.28;6114723;23;20055;-73
2023/05/24 03:53:03;;;;;;;4.10;3.90;;;;;;;5.64;100.00;101691.28;6115221;23;20743;-73
2023/05/24 03:55:29;;;;;;;5.10;4.68;;;;;;;5.23;100.00;101626.84;6115736;23;20526;-73
2023/05/24 03:57:56;;;;;;;7.20;4.70;;;;;;;5.75;100.00;101693.72;6108993;23;20107;-73
2023/05/24 04:00:22;;;;;;;4.90;4.05;;;;;;;5.78;100.00;101698.88;6116059;23;20017;-74
2023/05/24 04:02:49;;;;;;;3.90;3.70;;;;;;;5.19;100.00;101619.09;6114574;23;20033;-74
2023/05/24 04:05:16;;;;;;;4.80;4.40;;;;;;;5.10;100.00;101619.22;6089250;23;20022;-73
2023/05/24 04:07:44;;;;;;;7.85;3.65;;;;;;;5.68;100.00;101703.38;6120466;23;20109;-74
2023/05/24 04:10:10;;;;;;;4.15;3.95;;;;;;;5.06;100.00;101559.44;6086931;23;20473;-74
2023/05/24 04:12:37;;;;;;;4.82;4.53;;;;;;;6.66;100.00;101750.38;6121526;23;20511;-74
2023/05/24 04:15:04;;;;;;;3.83;3.63;;;;;;;6.76;100.00;101699.75;6115702;23;20033;-74
2023/05/24 04:17:33;;;;;;;4.03;3.83;;;;;;;7.26;100.00;101719.59;6116599;23;20035;-74
2023/05/24 04:20:00;;;;;;;5.05;4.75;;;;;;;7.48;100.00;101702.53;6114042;23;20040;-73
2023/05/24 04:22:27;;;;;;;5.20;4.20;;;;;;;8.15;100.00;101741.84;6111533;23;20029;-74
2023/05/24 04:24:53;;;;;;;5.13;4.10;;;;;;;7.68;98.10;101685.53;6112648;23;20013;-73
2023/05/24 04:27:20;;;;;;;4.32;4.07;;;;;;;8.46;95.04;101746.34;6082464;23;20096;-73
2023/05/24 04:29:52;;;;;;;4.28;3.97;;;;;;;8.79;92.46;101728.00;6085539;23;20586;-74
2023/05/24 04:32:18;;;;;;;4.30;4.10;;;;;;;9.32;89.54;101733.44;6089699;23;20033;-75
2023/05/24 04:34:45;;;;;;;4.28;4.07;;;;;;;9.11;85.93;101686.91;6106745;23;20018;-74
2023/05/24 04:37:12;;;;;;;13.52;4.88;;;;;;;9.14;84.51;101668.47;6099058;23;20017;-75
2023/05/24 04:39:39;;;;;;;4.70;4.32;;;;;;;8.78;83.48;101648.63;6111586;23;20104;-75
2023/05/24 04:42:06;;;;;;;5.25;4.78;;;;;;;8.79;83.38;101611.06;6097606;23;20583;-75
2023/05/24 04:44:33;;;;;;;5.05;4.65;;;;;;;9.04;82.29;101597.25;6108103;23;20033;-74
2023/05/24 04:47:01;;;;;;;5.00;4.70;;;;;;;9.14;80.63;101579.44;6100570;23;20568;-76
2023/05/24 04:49:28;;;;;;;6.20;4.82;;;;;;;9.17;80.01;101601.16;6107504;23;20033;-74
2023/05/24 04:51:55;;;;;;;5.63;5.15;;;;;;;10.02;79.76;101686.63;6091201;23;20034;-71
2023/05/24 04:54:23;;;;;;;9.45;5.38;;;;;;;9.05;78.39;101562.28;6115812;23;20639;-75
2023/05/24 04:56:50;;;;;;;4.70;4.50;;;;;;;9.89;79.00;101673.94;6104658;23;20025;-75
2023/05/24 04:59:16;;;;;;;5.82;5.32;;;;;;;10.25;77.91;101673.59;6095712;23;20028;-75
2023/05/24 05:01:43;;;;;;;5.22;4.80;;;;;;;10.66;76.18;101667.78;6112497;23;20036;-75
2023/05/24 05:04:09;;;;;;;6.57;5.80;;;;;;;10.05;75.68;101571.16;6068179;23;20112;-75
2023/05/24 05:06:39;;;;;;;5.20;4.90;;;;;;;10.77;75.50;101650.72;6110830;23;20005;-75
2023/05/24 05:09:10;;;;;;;5.47;4.88;;;;;;;11.34;73.52;101650.28;6113370;23;20462;-75
2023/05/24 05:11:36;;;;;;;5.43;5.03;;;;;;;12.06;71.43;101623.63;6081925;23;20064;-75
2023/05/24 05:14:03;;;;;;;7.70;5.32;;;;;;;12.86;69.68;101608.66;6119351;23;20096;-76
2023/05/24 05:16:30;;;;;;;5.40;5.00;;;;;;;13.32;67.94;101532.66;6085143;23;20029;-75
2023/05/24 05:18:57;;;;;;;5.63;5.22;;;;;;;12.95;65.12;101429.91;6094102;23;20048;-75
2023/05/24 05:21:23;;;;;;;6.90;5.50;;;;;;;12.34;65.84;101403.94;6110128;23;20029;-75
2023/05/24 05:23:50;;;;;;;8.18;5.45;;;;;;;13.15;66.42;101530.84;6086043;23;20021;-75
2023/05/24 05:26:16;;;;;;;5.75;5.30;;;;;;;12.49;64.93;101371.63;6093409;23;20044;-75
2023/05/24 05:28:43;;;;;;;5.97;5.43;;;;;;;13.48;63.58;101421.97;6108161;23;20623;-75
2023/05/24 05:31:10;;;;;;;7.15;6.57;;;;;;;13.74;63.31;101449.59;6113710;23;20114;-76
2023/05/24 05:33:36;;;;;;;6.00;5.50;;;;;;;13.02;63.65;101335.56;6111317;23;20024;-75
2023/05/24 05:36:03;;;;;;;9.32;5.70;;;;;;;14.29;62.97;101480.03;6099905;23;20540;-74
2023/05/24 05:38:29;;;;;;;6.05;5.45;;;;;;;14.28;61.64;101394.72;6116425;23;20065;-75
2023/05/24 05:40:57;;;;;;;6.13;5.60;;;;;;;14.90;61.92;101479.25;6118948;23;20384;-75
2023/05/24 05:43:24;;;;;;;5.85;5.45;;;;;;;14.99;60.03;101392.44;6114914;23;20025;-75
2023/05/24 05:45:50;;;;;;;5.78;5.30;;;;;;;13.31;61.09;101223.38;6118271;23;20564;-75
2023/05/24 05:48:17;;;;;;;6.00;5.55;;;;;;;12.11;63.40;101258.56;6089493;23;20413;-75
2023/05/24 05:50:43;;;;;;;6.55;5.95;;;;;;;12.45;66.27;101500.81;6119645;23;20056;-76
2023/05/24 05:53:10;;;;;;;9.30;6.05;;;;;;;12.34;66.46;101459.22;6116292;23;20045;-75
2023/05/24 05:55:38;;;;;;;9.70;6.00;;;;;;;13.51;65.96;101585.28;6085919;23;20022;-75
2023/05/24 05:58:05;;;;;;;7.18;5.78;;;;;;;13.26;63.92;101467.88;6114701;23;20089;-75
2023/05/24 06:00:31;;;;;;;11.27;5.65;;;;;;;12.76;64.27;101385.19;6089539;23;20407;-75
2023/05/24 06:02:58;;;;;;;7.28;5.40;;;;;;;12.05;65.98;101350.97;6116904;23;20045;-75
2023/05/24 06:05:24;;;;;;;5.90;5.50;;;;;;;10.56;68.77;101291.94;6116871;23;20511;-75
2023/05/24 06:07:51;;;;;;;6.43;5.28;;;;;;;12.34;69.93;101588.19;6090567;23;20038;-75
2023/05/24 06:10:17;;;;;;;11.32;5.80;;;;;;;12.77;67.82;101537.03;6118043;23;20016;-76
2023/05/24 06:12:44;;;;;;;7.47;6.22;;;;;;;12.57;68.10;101526.59;6092866;23;20077;-76
2023/05/24 06:15:11;;;;;;;6.47;5.88;;;;;;;12.70;67.75;101543.50;6118145;23;20021;-75
2023/05/24 06:17:37;;;;;;;7.38;5.30;;;;;;;13.11;67.46;101535.41;6114250;23;20030;-75
2023/05/24 06:20:14;;;;;;;18.92;5.78;;;;;;;13.45;65.50;101495.94;6119952;23;20033;-75
2023/05/24 06:22:41;;;;;;;9.23;5.80;;;;;;;14.15;64.58;101509.84;6010314;23;20486;-75
2023/05/24 06:25:08;;;;;;;17.60;6.43;;;;;;;12.93;63.52;101299.19;6102628;23;20022;-75
2023/05/24 06:27:35;;;;;;;8.52;6.45;;;;;;;13.36;63.99;101397.09;6116169;23;20033;-74
2023/05/24 06:30:01;;;;;;;13.40;5.85;;;;;;;12.77;64.67;101365.81;6100783;23;20366;-76
2023/05/24 06:32:28;;;;;;;6.03;5.53;;;;;;;12.92;64.68;101398.44;6114204;23;20049;-75
2023/05/24 06:34:54;;;;;;;7.45;6.22;;;;;;;12.44;65.60;101370.16;6093214;23;20010;-75
2023/05/24 06:37:24;;;;;;;9.02;6.18;;;;;;;12.08;65.85;101392.03;6092074;23;20051;-75
2023/05/24 06:39:50;;;;;;;7.03;5.65;;;;;;;11.97;66.74;101396.03;6115136;23;20014;-75
2023/05/24 06:42:17;;;;;;;6.45;5.95;;;;;;;12.44;66.41;101446.47;6091264;23;20033;-76
2023/05/24 06:44:43;;;;;;;6.22;5.63;;;;;;;13.03;66.48;101541.94;6088441;23;20581;-75
2023/05/24 06:47:10;;;;;;;8.68;5.80;;;;;;;12.24;68.16;101532.50;6080000;23;20718;-73
2023/05/24 06:49:37;;;;;;;6.20;5.78;;;;;;;12.23;69.50;101572.03;6118748;23;20029;-74
2023/05/24 06:52:04;;;;;;;6.55;6.03;;;;;;;12.33;69.88;101557.56;6114476;23;20036;-75
2023/05/24 06:54:30;;;;;;;5.82;5.25;;;;;;;11.98;70.21;101565.25;6114704;23;20732;-75
2023/05/24 06:56:57;;;;;;;6.50;5.90;;;;;;;11.34;73.05;101616.97;6116467;23;20094;-74
2023/05/24 06:59:24;;;;;;;6.60;5.95;;;;;;;11.40;74.86;101643.94;6118876;23;20090;-75
2023/05/24 07:01:56;;;;;;;6.18;5.68;;;;;;;11.66;74.43;101682.31;6089558;23;20038;-75
2023/05/24 07:04:23;;;;;;;12.85;6.85;;;;;;;11.88;74.35;101648.91;6117879;23;20029;-76
2023/05/24 07:06:51;;;;;;;14.73;6.15;;;;;;;11.95;72.17;101595.19;6114610;23;20029;-75
2023/05/24 07:09:18;;;;;;;9.90;6.53;;;;;;;11.43;72.90;101568.44;6096982;23;20022;-74
2023/05/24 07:11:45;;;;;;;9.75;6.28;;;;;;;11.32;73.28;101568.88;6116586;23;20013;-75
2023/05/24 07:14:11;;;;;;;13.13;6.55;;;;;;;11.79;72.50;101615.13;6112017;23;20045;-74
2023/05/24 07:16:38;;;;;;;8.70;5.72;;;;;;;12.51;73.33;101705.94;6087763;23;20026;-74
2023/05/24 07:19:07;;;;;;;12.43;6.85;;;;;;;12.22;71.44;101570.34;6089273;23;20062;-76
2023/05/24 07:21:34;;;;;;;9.45;6.68;;;;;;;12.87;69.20;101612.97;6118275;23;20126;-74
2023/05/24 07:24:02;;;;;;;7.78;5.80;;;;;;;12.81;68.08;101539.50;6118077;23;20023;-75
2023/05/24 07:26:29;;;;;;;7.75;6.35;;;;;;;12.28;67.27;101459.53;6085884;23;20057;-75
2023/05/24 07:28:55;;;;;;;7.32;5.90;;;;;;;12.38;68.49;101539.75;6113648;23;20768;-74
2023/05/24 07:31:22;;;;;;;13.43;7.35;;;;;;;13.03;67.96;101595.53;6114431;23;20086;-74
2023/05/24 07:33:48;;;;;;;8.88;6.95;;;;;;;12.09;68.66;101528.78;6116775;23;20028;-73
2023/05/24 07:36:15;;;;;;;7.03;6.38;;;;;;;11.91;68.94;101519.94;6115621;23;20025;-75
2023/05/24 07:38:41;;;;;;;8.68;6.97;;;;;;;11.33;67.31;101349.00;6091861;23;20087;-74
2023/05/24 07:41:08;;;;;;;7.20;6.47;;;;;;;12.78;67.64;101580.88;6088251;23;20637;-75
2023/05/24 07:43:36;;;;;;;11.20;6.50;;;;;;;12.60;66.79;101510.63;6088060;23;20041;-74
2023/05/24 07:46:03;;;;;;;19.02;8.60;;;;;;;12.90;66.70;101546.97;6111080;23;20081;-74
2023/05/24 07:48:29;;;;;;;8.05;6.93;;;;;;;13.06;65.73;101494.38;6118125;23;20318;-75
2023/05/24 07:50:56;;;;;;;9.15;6.95;;;;;;;12.98;65.49;101474.53;6087061;23;20022;-75
2023/05/24 07:53:22;;;;;;;16.17;7.20;;;;;;;13.04;64.52;101452.28;6111060;23;20025;-75
2023/05/24 07:55:49;;;;;;;7.70;7.03;;;;;;;12.72;65.26;101443.38;6095138;23;20043;-74
2023/05/24 07:58:16;;;;;;;8.00;7.18;;;;;;;12.80;64.90;101446.47;6108864;23;20106;-76
2023/05/24 08:00:42;;;;;;;9.32;7.35;;;;;;;12.80;67.23;101540.44;6099011;23;20010;-76
2023/05/24 08:03:12;;;;;;;10.35;7.70;;;;;;;13.33;66.87;101618.69;6114941;23;20077;-75
2023/05/24 08:05:39;;;;;;;9.15;6.88;;;;;;;13.21;65.27;101488.34;6118554;23;20112;-76
2023/05/24 08:08:06;;;;;;;10.00;7.18;;;;;;;13.46;63.33;101444.94;6087406;23;20566;-76
2023/05/24 08:10:32;;;;;;;13.98;7.38;;;;;;;13.29;63.53;101422.94;6115676;23;20029;-73
2023/05/24 08:12:59;;;;;;;6.95;6.13;;;;;;;13.64;64.33;101506.41;6119807;23;20017;-75
2023/05/24 08:15:25;;;;;;;6.53;5.90;;;;;;;13.39;62.51;101386.41;6086288;23;20025;-75
2023/05/24 08:17:52;;;;;;;9.27;6.18;;;;;;;13.68;63.83;101500.03;6112765;23;20087;-75
2023/05/24 08:20:19;;;;;;;6.75;5.93;;;;;;;13.08;63.07;101364.25;6084540;23;20009;-75
2023/05/24 08:22:47;;;;;;;14.90;7.57;;;;;;;12.93;62.58;101315.00;6114493;23;20677;-75
2023/05/24 08:25:14;;;;;;;12.70;5.63;;;;;;;12.86;63.06;101363.66;6109826;23;20099;-74
2023/05/24 08:27:40;;;;;;;8.20;6.25;;;;;;;12.98;64.41;101471.03;6116073;23;20037;-73
2023/05/24 08:30:07;;;;;;;17.77;6.82;;;;;;;12.46;65.35;101434.09;6087484;23;20045;-73
2023/05/24 08:32:34;;;;;;;7.90;5.70;;;;;;;12.64;66.32;101485.88;6107162;23;20034;-73
2023/05/24 08:35:02;;;;;;;6.47;5.93;;;;;;;12.96;65.80;101552.78;6108927;23;20028;-74
2023/05/24 08:37:47;;;;;;;12.63;6.20;;;;;;;11.97;65.49;101377.63;6083673;23;20555;-74
2023/05/24 08:40:15;;;;;;;11.50;7.07;;;;;;;13.63;64.03;101558.31;6113070;23;20017;-74
2023/05/24 08:42:43;;;;;;;10.98;7.05;;;;;;;13.26;62.02;101383.50;6059137;23;20018;-74
2023/05/24 08:45:11;;;;;;;11.88;6.80;;;;;;;13.48;62.22;101457.09;6111997;23;20044;-73
2023/05/24 08:47:39;;;;;;;7.40;6.70;;;;;;;13.38;62.44;101441.84;6081975;23;20050;-74
2023/05/24 08:50:07;;;;;;;9.73;6.65;;;;;;;12.70;62.70;101377.59;6113549;23;20707;-74
2023/05/24 08:52:34;;;;;;;10.27;6.38;;;;;;;13.22;62.85;101454.94;6085240;23;20037;-74
2023/05/24 08:55:04;;;;;;;7.15;6.45;;;;;;;12.98;62.70;101426.25;6107244;23;20400;-74
2023/05/24 08:57:33;;;;;;;10.70;7.00;;;;;;;12.11;63.33;101318.25;6115751;23;20029;-73
2023/05/24 08:59:59;;;;;;;9.02;7.65;;;;;;;12.66;63.69;101459.47;6079745;23;20033;-74
2023/05/24 09:02:26;;;;;;;12.15;7.70;;;;;;;11.47;64.50;101301.06;6113003;23;20036;-74
2023/05/24 09:04:54;;;;;;;8.80;7.07;;;;;;;12.87;65.24;101511.09;6082959;23;20290;-74
2023/05/24 09:07:24;;;;;;;19.45;8.10;;;;;;;12.77;63.76;101431.69;6108687;23;20094;-74
2023/05/24 09:09:57;;;;;;;8.18;7.25;;;;;;;12.89;62.98;101380.16;6094998;23;20084;-74
2023/05/24 09:12:25;;;;;;;;;;;;;;;13.56;62.12;101477.81;6117590;23;20017;-74
2023/05/24 09:15:05;;;;;;;7.20;6.50;;;;;;;13.44;62.22;101416.00;6120616;23;19915;-74
2023/05/24 09:17:34;;;;;;;6.60;6.00;;;;;;;14.04;61.61;101493.75;6121294;23;20041;-74
2023/05/24 09:20:04;;;;;;;6.70;6.18;;;;;;;13.13;61.24;101333.25;6116294;23;20025;-73
2023/05/24 09:22:32;;;;;;;8.13;6.60;;;;;;;12.71;61.48;101297.66;6090953;23;20659;-74
2023/05/24 09:25:03;;;;;;;6.45;5.85;;;;;;;13.84;61.52;101471.06;6117064;23;20029;-74
2023/05/24 09:27:31;;;;;;;6.80;6.10;;;;;;;13.96;61.06;101449.28;6112374;23;20103;-74
2023/05/24 09:29:58;;;;;;;6.55;5.50;;;;;;;13.89;59.55;101348.53;6119713;23;20032;-74
2023/05/24 09:32:24;;;;;;;12.13;6.20;;;;;;;12.52;59.95;101173.16;6114935;23;20033;-72
2023/05/24 09:34:52;;;;;;;15.52;5.90;;;;;;;14.16;59.49;101385.69;6099206;23;20395;-75
2023/05/24 09:37:23;;;;;;;7.00;6.50;;;;;;;13.36;58.96;101208.13;6085210;23;20020;-75
2023/05/24 09:39:57;;;;;;;13.10;5.95;;;;;;;14.80;58.86;101405.91;6095324;23;20037;-75
2023/05/24 09:42:26;;;;;;;11.38;5.82;;;;;;;14.46;58.14;101328.59;6096238;23;20032;-75
2023/05/24 09:45:08;;;;;;;13.95;5.55;;;;;;;13.80;58.34;101238.22;6093373;23;20025;-75
2023/05/24 09:47:36;;;;;;;11.60;5.95;;;;;;;14.94;58.10;101435.84;6087817;23;20062;-77
2023/05/24 09:50:05;;;;;;;7.32;6.75;;;;;;;14.18;57.54;101269.47;6116317;23;20046;-74
2023/05/24 09:52:35;;;;;;;10.95;6.28;;;;;;;14.23;58.16;101333.41;6117761;23;20115;-74
2023/05/24 09:55:12;;;;;;;6.30;5.22;;;;;;;15.05;57.77;101421.16;6118962;23;20582;-74
2023/05/24 09:57:38;;;;;;;10.20;6.55;;;;;;;14.94;55.19;101269.34;6090987;23;20021;-74
2023/05/24 10:00:13;;;;;;;12.93;7.15;;;;;;;14.79;55.93;101228.00;6115357;23;20642;-74
2023/05/24 10:02:40;;;;;;;7.68;6.13;;;;;;;15.04;56.35;101304.00;6118460;23;20029;-74
2023/05/24 10:05:18;;;;;;;11.13;6.43;;;;;;;14.38;56.65;101233.97;6120975;23;20013;-74
2023/05/24 10:07:45;;;;;;;6.63;6.00;;;;;;;14.81;56.14;101286.03;6117627;23;20093;-75
2023/05/24 10:10:12;;;;;;;6.68;6.03;;;;;;;14.17;56.62;101220.22;6115744;23;20017;-75
2023/05/24 10:12:45;;;;;;;6.05;5.55;;;;;;;14.17;55.27;101193.84;6084428;23;20034;-75
2023/05/24 10:15:12;;;;;;;6.80;5.45;;;;;;;13.87;58.05;101328.41;6114865;23;20017;-75
2023/05/24 10:17:39;;;;;;;6.50;5.85;;;;;;;14.06;59.94;101447.00;6112589;23;20652;-74
2023/05/24 10:20:07;;;;;;;5.65;5.35;;;;;;;14.45;59.38;101469.47;6113815;23;20054;-76
2023/05/24 10:22:39;;;;;;;6.38;5.32;;;;;;;14.41;59.66;101471.44;6114779;23;20048;-74
2023/05/24 10:25:09;;;;;;;8.05;6.03;;;;;;;14.25;59.01;101400.19;6111175;23;20029;-75
2023/05/24 10:27:37;;;;;;;10.15;5.60;;;;;;;14.50;59.02;101444.53;6085910;23;20538;-75
2023/05/24 10:30:13;;;;;;;9.20;5.75;;;;;;;14.71;57.85;101426.63;6111086;23;20096;-75
2023/05/24 10:32:42;;;;;;;6.25;5.78;;;;;;;14.67;58.80;101446.25;6089086;23;20052;-75
2023/05/24 10:35:13;;;;;;;7.07;5.63;;;;;;;14.97;58.61;101458.59;6084780;23;20081;-75
2023/05/24 10:37:41;;;;;;;15.98;5.82;;;;;;;15.21;57.56;101429.00;6092543;23;20029;-74
2023/05/24 10:40:16;;;;;;;11.30;5.93;;;;;;;15.38;56.00;101397.13;6111619;23;20127;-77
2023/05/24 10:42:44;;;;;;;8.13;5.82;;;;;;;15.71;55.88;101435.66;6118000;23;20038;-75
2023/05/24 10:45:37;;;;;;;6.78;5.57;;;;;;;15.97;54.49;101365.22;6090746;23;20087;-76
2023/05/24 10:48:27;;;;;;;5.65;5.35;;;;;;;15.95;54.43;101353.88;6081930;23;20120;-75
2023/05/24 10:50:54;;;;;;;6.07;5.43;;;;;;;15.59;53.53;101251.22;6086030;23;20037;-75
2023/05/24 10:53:24;;;;;;;6.00;5.47;;;;;;;15.18;53.93;101221.19;6089123;23;20093;-73
2023/05/24 10:55:58;;;;;;;6.45;5.82;;;;;;;16.00;53.12;101322.69;6115705;23;20048;-73
2023/05/24 10:58:31;;;;;;;8.60;5.55;;;;;;;15.95;52.00;101227.66;6091460;23;20062;-73
2023/05/24 11:00:58;;;;;;;8.07;6.05;;;;;;;15.23;52.10;101109.81;6117301;23;20023;-73
2023/05/24 11:03:32;;;;;;;7.63;6.95;;;;;;;15.73;50.80;101126.81;6111716;23;20026;-76
2023/05/24 11:05:58;;;;;;;9.02;6.00;;;;;;;15.22;52.73;101151.28;6087418;23;20026;-77
2023/05/24 11:08:30;;;;;;;6.35;5.72;;;;;;;15.10;53.18;101181.16;6121033;23;20041;-75
2023/05/24 11:11:11;;;;;;;7.03;5.68;;;;;;;15.06;53.77;101228.09;6106866;23;20014;-76
2023/05/24 11:13:56;;;;;;;9.27;5.70;;;;;;;15.22;55.31;101344.31;6119875;23;20030;-75
2023/05/24 11:16:35;;;;;;;5.40;5.10;;;;;;;15.28;54.50;101306.06;6062757;23;20052;-76
2023/05/24 11:19:28;;;;;;;11.25;6.07;;;;;;;15.04;55.37;101322.50;6114999;23;20028;-76
2023/05/24 11:21:57;;;;;;;17.70;6.22;;;;;;;15.18;53.10;101234.41;6091626;23;20046;-74
2023/05/24 11:24:25;;;;;;;10.32;6.07;;;;;;;16.67;52.70;101412.75;6118948;23;20092;-74
2023/05/24 11:26:52;;;;;;;8.40;6.28;;;;;;;16.87;50.43;101270.94;6112303;23;20083;-74
2023/05/24 11:29:21;;;;;;;8.23;6.38;;;;;;;15.75;49.59;101025.25;6088719;23;20029;-73
2023/05/24 11:31:51;;;;;;;12.88;6.93;;;;;;;16.16;50.34;101150.41;6115721;23;20028;-74